createdAt,value
2022-08-19T00:00:50.458Z,18.9
2022-08-19T00:02:50.775Z,18.2
2022-08-19T00:04:50.044Z,18.3
2022-08-19T00:06:50.604Z,18.5
2022-08-19T00:08:50.664Z,18.5
2022-08-19T00:10:50.653Z,18.8
2022-08-19T00:12:50.883Z,18.9
2022-08-19T00:14:50.254Z,18.1
2022-08-19T00:16:50.385Z,18.1
2022-08-19T00:18:50.408Z,19.1
2022-08-19T00:20:50.270Z,19.1
2022-08-19T00:22:50.396Z,19.1
2022-08-19T00:24:51.258Z,19.6
2022-08-19T00:26:50.485Z,19.6
2022-08-19T00:28:50.616Z,20.0
2022-08-19T00:30:49.940Z,19.8
2022-08-19T00:32:50.321Z,19.8
2022-08-19T00:34:49.945Z,19.7
2022-08-19T00:36:50.573Z,19.7
2022-08-19T00:38:50.393Z,19.4
2022-08-19T00:40:50.582Z,19.3
2022-08-19T00:42:49.833Z,19.9
2022-08-19T00:44:49.838Z,19.2
2022-08-19T00:46:58.580Z,19.2
2022-08-19T00:48:49.811Z,19.8
2022-08-19T00:50:52.480Z,20.8
2022-08-19T00:52:50.321Z,20.8
2022-08-19T00:54:52.946Z,20.5
2022-08-19T00:56:54.348Z,20.5
2022-08-19T00:58:49.970Z,21.0
2022-08-19T01:00:49.953Z,20.2
2022-08-19T01:02:49.915Z,20.2
2022-08-19T01:04:50.428Z,20.6
2022-08-19T01:06:49.755Z,20.6
2022-08-19T01:08:50.414Z,19.4
2022-08-19T01:10:50.322Z,19.1
2022-08-19T01:12:50.424Z,19.3
2022-08-19T01:14:50.226Z,19.3
2022-08-19T01:16:50.543Z,19.6
2022-08-19T01:18:50.461Z,20.0
2022-08-19T01:20:50.570Z,19.8
2022-08-19T01:22:50.327Z,19.8
2022-08-19T01:24:51.956Z,19.8
2022-08-19T01:26:50.687Z,19.7
2022-08-19T01:28:51.970Z,19.3
2022-08-19T01:30:51.321Z,19.3
2022-08-19T01:32:50.251Z,19.3
2022-08-19T01:34:54.004Z,19.3
2022-08-19T01:36:50.329Z,18.9
2022-08-19T01:38:50.484Z,18.7
2022-08-19T01:40:50.408Z,18.8
2022-08-19T01:42:50.452Z,18.9
2022-08-19T01:44:50.493Z,18.9
2022-08-19T01:46:49.738Z,20.2
2022-08-19T01:48:49.711Z,19.7
2022-08-19T01:50:49.720Z,19.9
2022-08-19T01:53:02.566Z,20.4
2022-08-19T01:54:50.303Z,20.4
2022-08-19T01:56:51.195Z,20.8
2022-08-19T01:58:50.389Z,21.7
2022-08-19T02:00:50.448Z,22.2
2022-08-19T02:02:50.404Z,22.2
2022-08-19T02:04:49.909Z,22.5
2022-08-19T02:06:50.174Z,21.9
2022-08-19T02:08:51.887Z,22.2
2022-08-19T02:10:49.773Z,21.9
2022-08-19T02:12:50.648Z,21.9
2022-08-19T02:14:50.497Z,22.1
2022-08-19T02:16:49.842Z,22.7
2022-08-19T02:18:49.943Z,22.6
2022-08-19T02:20:49.889Z,22.6
2022-08-19T02:22:49.978Z,23.0
2022-08-19T02:24:49.906Z,23.7
2022-08-19T02:26:49.923Z,23.2
2022-08-19T02:28:49.912Z,22.2
2022-08-19T02:30:49.990Z,22.3
2022-08-19T02:32:49.997Z,22.3
2022-08-19T02:34:50.529Z,21.7
2022-08-19T02:36:52.560Z,21.4
2022-08-19T02:38:55.588Z,21.6
2022-08-19T02:40:49.828Z,22.3
2022-08-19T02:42:49.764Z,22.3
2022-08-19T02:44:49.777Z,22.3
2022-08-19T02:46:52.479Z,22.2
2022-08-19T02:48:49.815Z,21.9
2022-08-19T02:50:53.755Z,21.9
2022-08-19T02:52:49.794Z,21.9
2022-08-19T02:54:49.701Z,22.0
2022-08-19T02:56:49.973Z,22.0
2022-08-19T02:58:51.894Z,21.8
2022-08-19T03:00:49.807Z,21.8
2022-08-19T03:02:49.932Z,22.5
2022-08-19T03:04:50.427Z,21.9
2022-08-19T03:06:50.539Z,21.8
2022-08-19T03:08:50.360Z,22.6
2022-08-19T03:10:50.354Z,22.6
2022-08-19T03:12:50.163Z,22.4
2022-08-19T03:14:50.184Z,22.6
2022-08-19T03:16:50.490Z,22.6
2022-08-19T03:18:50.700Z,22.0
2022-08-19T03:20:49.754Z,22.0
2022-08-19T03:22:49.682Z,22.2
2022-08-19T03:24:50.654Z,21.8
2022-08-19T03:26:49.905Z,22.8
2022-08-19T03:28:57.964Z,23.6
2022-08-19T03:30:50.644Z,23.6
2022-08-19T03:32:57.428Z,23.6
2022-08-19T03:34:50.154Z,23.7
2022-08-19T03:36:50.611Z,23.4
2022-08-19T03:38:57.563Z,23.5
2022-08-19T03:40:50.012Z,23.5
2022-08-19T03:42:50.079Z,23.0
2022-08-19T03:44:50.010Z,23.7
2022-08-19T03:46:50.492Z,24.9
2022-08-19T03:48:50.305Z,24.6
2022-08-19T03:50:50.202Z,24.6
2022-08-19T03:52:50.174Z,25.3
2022-08-19T03:54:50.245Z,24.8
2022-08-19T03:56:50.527Z,25.5
2022-08-19T03:58:50.463Z,25.5
2022-08-19T04:00:50.582Z,24.8
2022-08-19T04:03:00.193Z,25.5
2022-08-19T04:04:49.681Z,25.8
2022-08-19T04:06:50.024Z,25.2
2022-08-19T04:08:49.986Z,25.2
2022-08-19T04:10:49.965Z,26.2
2022-08-19T04:12:51.368Z,25.4
2022-08-19T04:14:50.109Z,25.4
2022-08-19T04:16:50.262Z,25.2
2022-08-19T04:18:50.349Z,25.2
2022-08-19T04:20:50.445Z,25.4
2022-08-19T04:22:49.874Z,25.2
2022-08-19T04:24:49.932Z,25.4
2022-08-19T04:26:50.380Z,25.9
2022-08-19T04:28:50.248Z,25.9
2022-08-19T04:30:50.282Z,24.1
2022-08-19T04:32:50.198Z,24.4
2022-08-19T04:35:01.662Z,24.3
2022-08-19T04:36:49.820Z,24.3
2022-08-19T04:38:49.753Z,25.3
2022-08-19T04:40:49.755Z,25.0
2022-08-19T04:42:50.578Z,24.7
2022-08-19T04:44:51.755Z,23.9
2022-08-19T04:46:52.010Z,23.9
2022-08-19T04:48:50.357Z,24.8
2022-08-19T04:50:50.332Z,24.9
2022-08-19T04:52:50.370Z,25.8
2022-08-19T04:54:50.222Z,25.2
2022-08-19T04:56:50.325Z,25.2
2022-08-19T04:58:50.265Z,25.1
2022-08-19T05:00:50.359Z,26.2
2022-08-19T05:02:49.887Z,25.1
2022-08-19T05:04:50.419Z,25.6
2022-08-19T05:06:49.826Z,25.6
2022-08-19T05:08:49.756Z,24.8
2022-08-19T05:10:49.787Z,24.7
2022-08-19T05:12:49.901Z,25.3
2022-08-19T05:14:49.941Z,25.5
2022-08-19T05:16:55.876Z,25.5
2022-08-19T05:18:50.297Z,25.1
2022-08-19T05:20:49.936Z,24.8
2022-08-19T05:22:50.155Z,25.4
2022-08-19T05:25:12.038Z,25.4
2022-08-19T05:26:50.008Z,24.7
2022-08-19T05:28:54.952Z,24.1
2022-08-19T05:30:50.125Z,25.4
2022-08-19T05:32:54.186Z,24.3
2022-08-19T05:34:50.464Z,24.3
2022-08-19T05:36:49.827Z,25.0
2022-08-19T05:38:49.769Z,23.9
2022-08-19T05:40:49.792Z,22.9
2022-08-19T05:42:55.570Z,22.9
2022-08-19T05:44:50.492Z,23.7
2022-08-19T05:46:50.660Z,27.2
2022-08-19T05:48:49.772Z,22.5
2022-08-19T05:50:49.858Z,21.7
2022-08-19T05:52:50.901Z,22.1
2022-08-19T05:54:51.685Z,22.1
2022-08-19T05:56:50.167Z,22.3
2022-08-19T05:58:50.142Z,22.9
2022-08-19T06:00:50.701Z,21.4
2022-08-19T06:02:50.806Z,21.4
2022-08-19T06:04:49.971Z,21.4
2022-08-19T06:06:50.128Z,21.6
2022-08-19T06:08:50.355Z,20.9
2022-08-19T06:10:50.428Z,20.7
2022-08-19T06:12:49.720Z,20.2
2022-08-19T06:15:00.585Z,20.2
2022-08-19T06:16:50.474Z,20.7
2022-08-19T06:18:50.645Z,19.8
2022-08-19T06:20:56.381Z,18.4
2022-08-19T06:22:50.682Z,20.9
2022-08-19T06:24:50.554Z,20.9
2022-08-19T06:26:50.362Z,21.8
2022-08-19T06:28:50.430Z,23.4
2022-08-19T06:30:50.591Z,21.4
2022-08-19T06:32:51.715Z,21.4
2022-08-19T06:34:49.742Z,21.4
2022-08-19T06:36:49.988Z,21.7
2022-08-19T06:38:49.955Z,22.2
2022-08-19T06:40:50.143Z,22.5
2022-08-19T06:42:55.650Z,22.5
2022-08-19T06:44:53.717Z,22.3
2022-08-19T06:46:55.167Z,22.3
2022-08-19T06:48:50.301Z,21.7
2022-08-19T06:50:49.982Z,21.7
2022-08-19T06:52:51.171Z,21.4
2022-08-19T06:54:56.897Z,20.3
2022-08-19T06:56:50.185Z,19.6
2022-08-19T06:58:49.969Z,21.5
2022-08-19T07:00:49.842Z,21.5
2022-08-19T07:02:58.633Z,20.6
2022-08-19T07:04:52.983Z,20.6
2022-08-19T07:06:55.481Z,20.7
2022-08-19T07:08:50.652Z,20.0
2022-08-19T07:10:49.669Z,20.0
2022-08-19T07:12:50.867Z,20.3
2022-08-19T07:14:50.431Z,20.6
2022-08-19T07:16:49.734Z,20.0
2022-08-19T07:18:49.826Z,20.0
2022-08-19T07:20:50.489Z,20.8
2022-08-19T07:22:50.499Z,20.9
2022-08-19T07:24:51.783Z,21.0
2022-08-19T07:26:52.101Z,22.0
2022-08-19T07:28:53.152Z,22.0
2022-08-19T07:30:53.075Z,21.0
2022-08-19T07:32:50.707Z,21.2
2022-08-19T07:34:50.484Z,21.4
2022-08-19T07:36:49.978Z,21.4
2022-08-19T07:38:49.959Z,21.4
2022-08-19T07:40:49.858Z,21.0
2022-08-19T07:42:49.688Z,21.1
2022-08-19T07:44:51.257Z,20.5
2022-08-19T07:46:53.372Z,21.4
2022-08-19T07:48:50.488Z,20.8
2022-08-19T07:50:50.387Z,20.8
2022-08-19T07:52:50.614Z,21.8
2022-08-19T07:54:50.634Z,20.3
2022-08-19T07:56:52.654Z,20.4
2022-08-19T07:58:50.742Z,20.4
2022-08-19T08:00:49.954Z,20.5
2022-08-19T08:02:51.507Z,20.5
2022-08-19T08:04:50.234Z,20.6
2022-08-19T08:06:50.459Z,20.9
2022-08-19T08:08:52.937Z,20.9
2022-08-19T08:10:56.824Z,21.1
2022-08-19T08:13:09.761Z,20.0
2022-08-19T08:14:56.134Z,20.5
2022-08-19T08:16:50.402Z,20.7
2022-08-19T08:18:53.525Z,20.7
2022-08-19T08:20:49.953Z,20.6
2022-08-19T08:22:50.154Z,19.9
2022-08-19T08:24:50.481Z,19.7
2022-08-19T08:26:57.531Z,20.6
2022-08-19T08:28:49.993Z,20.6
2022-08-19T08:30:50.998Z,20.0
2022-08-19T08:32:51.117Z,18.8
2022-08-19T08:34:52.815Z,19.2
2022-08-19T08:36:50.382Z,18.3
2022-08-19T08:38:50.428Z,18.3
2022-08-19T08:40:50.482Z,17.6
2022-08-19T08:42:50.564Z,18.0
2022-08-19T08:46:53.016Z,16.7
2022-08-19T08:48:52.976Z,16.7
2022-08-19T08:50:50.444Z,17.2
2022-08-19T08:52:52.047Z,16.9
2022-08-19T08:54:55.878Z,16.7
2022-08-19T08:56:51.745Z,16.7
2022-08-19T08:58:54.938Z,16.5
2022-08-19T09:00:50.043Z,15.4
2022-08-19T09:02:51.641Z,15.8
2022-08-19T09:04:51.008Z,15.8
2022-08-19T09:06:50.657Z,15.8
2022-08-19T09:08:50.707Z,16.4
2022-08-19T09:10:55.645Z,16.7
2022-08-19T09:12:49.848Z,18.0
2022-08-19T09:14:52.147Z,18.6
2022-08-19T09:16:50.659Z,18.6
2022-08-19T09:18:50.587Z,19.0
2022-08-19T09:20:50.569Z,19.6
2022-08-19T09:22:50.546Z,19.1
2022-08-19T09:24:50.657Z,19.3
2022-08-19T09:26:53.146Z,19.3
2022-08-19T09:28:50.125Z,18.0
2022-08-19T09:30:53.199Z,19.7
2022-08-19T09:32:53.204Z,19.0
2022-08-19T09:34:51.673Z,18.2
2022-08-19T09:36:51.474Z,18.2
2022-08-19T09:38:50.055Z,18.3
2022-08-19T09:40:50.113Z,17.7
2022-08-19T09:42:52.839Z,17.8
2022-08-19T09:44:49.806Z,17.7
2022-08-19T09:46:50.145Z,17.7
2022-08-19T09:48:50.061Z,17.0
2022-08-19T09:50:52.255Z,17.4
2022-08-19T09:52:57.936Z,17.5
2022-08-19T09:54:52.178Z,17.0
2022-08-19T09:56:50.330Z,17.0
2022-08-19T09:58:50.462Z,16.6
2022-08-19T10:00:51.844Z,16.6
2022-08-19T10:02:53.361Z,17.2
2022-08-19T10:04:50.553Z,17.2
2022-08-19T10:06:55.405Z,15.8
2022-08-19T10:08:50.870Z,16.1
2022-08-19T10:10:50.269Z,16.1
2022-08-19T10:12:50.160Z,16.4
2022-08-19T10:14:50.204Z,16.4
2022-08-19T10:16:50.621Z,17.0
2022-08-19T10:18:59.325Z,16.4
2022-08-19T10:20:52.852Z,15.3
2022-08-19T10:22:52.028Z,15.3
2022-08-19T10:24:50.649Z,15.3
2022-08-19T10:26:59.853Z,15.3
2022-08-19T10:28:50.140Z,15.0
2022-08-19T10:30:50.390Z,15.0
2022-08-19T10:32:50.406Z,15.0
2022-08-19T10:34:57.397Z,14.8
2022-08-19T10:37:00.726Z,14.8
2022-08-19T10:38:56.173Z,15.3
2022-08-19T10:40:50.390Z,14.7
2022-08-19T10:42:50.243Z,14.7
2022-08-19T10:44:52.270Z,14.9
2022-08-19T10:46:50.521Z,15.5
2022-08-19T10:48:50.356Z,15.0
2022-08-19T10:50:50.358Z,15.0
2022-08-19T10:52:50.965Z,15.0
2022-08-19T10:54:49.845Z,14.5
2022-08-19T10:56:50.323Z,15.0
2022-08-19T10:58:50.434Z,14.6
2022-08-19T11:00:50.438Z,14.7
2022-08-19T11:02:50.431Z,14.7
2022-08-19T11:04:51.901Z,15.1
2022-08-19T11:06:50.294Z,14.8
2022-08-19T11:08:50.209Z,14.8
2022-08-19T11:10:50.697Z,14.9
2022-08-19T11:12:49.760Z,14.9
2022-08-19T11:14:49.870Z,14.6
2022-08-19T11:16:50.141Z,14.4
2022-08-19T11:18:50.124Z,14.2
2022-08-19T11:20:50.292Z,14.1
2022-08-19T11:22:50.273Z,14.1
2022-08-19T11:24:50.239Z,14.3
2022-08-19T11:26:50.621Z,14.2
2022-08-19T11:28:49.688Z,14.2
2022-08-19T11:30:50.652Z,14.3
2022-08-19T11:32:49.915Z,14.3
2022-08-19T11:34:50.447Z,13.8
2022-08-19T11:36:49.815Z,14.3
2022-08-19T11:38:50.642Z,14.3
2022-08-19T11:40:49.688Z,14.3
2022-08-19T11:42:50.576Z,14.9
2022-08-19T11:44:49.946Z,14.6
2022-08-19T11:46:50.243Z,14.6
2022-08-19T11:48:50.169Z,13.6
2022-08-19T11:50:49.991Z,13.6
2022-08-19T11:52:50.039Z,14.5
2022-08-19T11:54:49.952Z,14.4
2022-08-19T11:56:50.275Z,14.1
2022-08-19T11:58:50.648Z,13.8
2022-08-19T12:00:50.587Z,13.8
2022-08-19T12:02:50.594Z,14.5
2022-08-19T12:04:49.904Z,14.9
2022-08-19T12:06:50.240Z,14.9
2022-08-19T12:08:50.181Z,16.7
2022-08-19T12:10:50.186Z,17.9
2022-08-19T12:12:59.169Z,16.4
2022-08-19T12:14:50.199Z,18.2
2022-08-19T12:16:52.604Z,18.2
2022-08-19T12:18:49.702Z,18.5
2022-08-19T12:20:49.795Z,20.5
2022-08-19T12:22:50.540Z,21.2
2022-08-19T12:24:50.549Z,21.7
2022-08-19T12:26:54.046Z,20.9
2022-08-19T12:28:49.900Z,20.9
2022-08-19T12:30:49.986Z,21.7
2022-08-19T12:32:49.968Z,22.2
2022-08-19T12:34:50.370Z,22.1
2022-08-19T12:36:50.871Z,22.1
2022-08-19T12:38:50.013Z,22.1
2022-08-19T12:40:49.966Z,23.2
2022-08-19T12:42:50.231Z,22.6
2022-08-19T12:44:50.811Z,23.6
2022-08-19T12:46:53.964Z,22.8
2022-08-19T12:48:55.524Z,22.8
2022-08-19T12:50:50.386Z,22.1
2022-08-19T12:52:50.330Z,23.3
2022-08-19T12:54:54.901Z,24.0
2022-08-19T12:56:50.597Z,23.5
2022-08-19T12:58:51.006Z,23.5
2022-08-19T13:00:50.490Z,22.7
2022-08-19T13:02:50.610Z,24.1
2022-08-19T13:04:50.077Z,24.3
2022-08-19T13:06:50.488Z,24.3
2022-08-19T13:08:50.374Z,25.7
2022-08-19T13:10:50.282Z,24.4
2022-08-19T13:12:50.281Z,25.6
2022-08-19T13:14:51.274Z,25.6
2022-08-19T13:16:49.697Z,25.0
2022-08-19T13:18:49.701Z,27.0
2022-08-19T13:20:53.228Z,27.9
2022-08-19T13:22:50.182Z,27.9
2022-08-19T13:24:50.228Z,27.6
2022-08-19T13:26:49.844Z,27.6
2022-08-19T13:28:50.661Z,28.3
2022-08-19T13:30:50.530Z,28.4
2022-08-19T13:32:50.660Z,28.2
2022-08-19T13:34:50.074Z,28.4
2022-08-19T13:36:50.429Z,28.4
2022-08-19T13:38:50.417Z,29.0
2022-08-19T13:40:50.407Z,29.1
2022-08-19T13:42:50.385Z,29.7
2022-08-19T13:44:50.559Z,32.1
2022-08-19T13:46:54.411Z,32.1
2022-08-19T13:48:50.438Z,31.6
2022-08-19T13:50:50.333Z,31.3
2022-08-19T13:52:50.138Z,31.3
2022-08-19T13:54:50.096Z,30.4
2022-08-19T13:56:50.293Z,31.0
2022-08-19T13:58:50.203Z,29.1
2022-08-19T14:00:50.193Z,28.6
2022-08-19T14:02:50.418Z,28.6
2022-08-19T14:04:49.833Z,27.1
2022-08-19T14:06:50.033Z,24.3
2022-08-19T14:08:49.986Z,21.8
2022-08-19T14:10:50.285Z,18.4
2022-08-19T14:12:50.443Z,16.4
2022-08-19T14:14:50.365Z,16.4
2022-08-19T14:16:49.803Z,14.7
2022-08-19T14:18:49.807Z,14.8
2022-08-19T14:20:49.809Z,16.0
2022-08-19T14:22:49.888Z,14.4
2022-08-19T14:24:49.921Z,14.4
2022-08-19T14:26:50.102Z,14.2
2022-08-19T14:28:50.615Z,14.1
2022-08-19T14:30:55.331Z,14.1
2022-08-19T14:32:49.852Z,14.2
2022-08-19T14:34:50.354Z,14.6
2022-08-19T14:36:50.625Z,14.3
2022-08-19T14:38:50.528Z,15.7
2022-08-19T14:40:50.377Z,15.7
2022-08-19T14:42:50.283Z,15.7
2022-08-19T14:44:50.367Z,15.9
2022-08-19T14:46:51.467Z,15.4
2022-08-19T14:48:52.695Z,15.8
2022-08-19T14:50:49.690Z,15.8
2022-08-19T14:52:49.853Z,15.8
2022-08-19T14:54:50.021Z,16.1
2022-08-19T14:56:50.136Z,16.8
2022-08-19T14:58:50.167Z,16.4
2022-08-19T15:00:50.175Z,16.0
2022-08-19T15:02:50.352Z,16.0
2022-08-19T15:05:00.611Z,16.8
2022-08-19T15:06:50.043Z,16.1
2022-08-19T15:08:49.928Z,16.9
2022-08-19T15:10:49.861Z,16.9
2022-08-19T15:12:52.020Z,16.9
2022-08-19T15:14:55.830Z,18.1
2022-08-19T15:16:50.334Z,18.9
2022-08-19T15:18:50.258Z,20.1
2022-08-19T15:20:50.233Z,20.1
2022-08-19T15:22:50.435Z,20.4
2022-08-19T15:24:50.320Z,20.4
2022-08-19T15:26:49.707Z,17.8
2022-08-19T15:28:50.581Z,17.8
2022-08-19T15:30:50.604Z,17.6
2022-08-19T15:32:50.473Z,17.6
2022-08-19T15:34:49.992Z,17.7
2022-08-19T15:36:50.356Z,18.1
2022-08-19T15:38:50.531Z,18.1
2022-08-19T15:40:50.332Z,17.9
2022-08-19T15:42:50.482Z,17.8
2022-08-19T15:44:50.653Z,17.0
2022-08-19T15:46:50.129Z,15.8
2022-08-19T15:49:00.502Z,15.8
2022-08-19T15:50:50.598Z,16.0
2022-08-19T15:52:50.670Z,14.9
2022-08-19T15:54:50.574Z,15.5
2022-08-19T15:56:58.535Z,14.6
2022-08-19T15:58:50.503Z,15.6
2022-08-19T16:00:52.923Z,15.6
2022-08-19T16:02:53.889Z,15.6
2022-08-19T16:04:50.371Z,15.2
2022-08-19T16:06:50.673Z,15.2
2022-08-19T16:08:49.747Z,15.5
2022-08-19T16:10:50.639Z,15.5
2022-08-19T16:12:49.704Z,16.3
2022-08-19T16:14:50.538Z,16.3
2022-08-19T16:16:49.769Z,16.3
2022-08-19T16:18:49.917Z,17.4
2022-08-19T16:20:49.760Z,17.4
2022-08-19T16:22:49.800Z,18.7
2022-08-19T16:24:49.742Z,18.7
2022-08-19T16:26:49.987Z,18.9
2022-08-19T16:28:51.370Z,19.9
2022-08-19T16:30:51.358Z,19.9
2022-08-19T16:32:50.385Z,20.0
2022-08-19T16:34:49.744Z,18.5
2022-08-19T16:36:50.084Z,19.6
2022-08-19T16:38:50.239Z,19.6
2022-08-19T16:40:50.413Z,19.0
2022-08-19T16:42:50.379Z,20.1
2022-08-19T16:44:50.116Z,18.8
2022-08-19T16:46:59.614Z,19.3
2022-08-19T16:48:49.867Z,19.3
2022-08-19T16:50:50.112Z,18.5
2022-08-19T16:52:49.981Z,19.0
2022-08-19T16:54:49.995Z,19.0
2022-08-19T16:56:50.348Z,18.6
2022-08-19T16:58:50.463Z,18.6
2022-08-19T17:00:50.491Z,15.5
2022-08-19T17:02:50.609Z,15.5
2022-08-19T17:04:58.986Z,15.5
2022-08-19T17:06:49.753Z,13.4
2022-08-19T17:08:49.867Z,16.1
2022-08-19T17:11:16.870Z,15.1
2022-08-19T17:12:50.561Z,15.2
2022-08-19T17:14:50.627Z,15.9
2022-08-19T17:16:49.726Z,15.1
2022-08-19T17:18:49.679Z,15.1
2022-08-19T17:20:55.103Z,16.0
2022-08-19T17:22:50.178Z,14.0
2022-08-19T17:24:50.216Z,12.4
2022-08-19T17:26:50.372Z,12.4
2022-08-19T17:28:50.289Z,12.0
2022-08-19T17:30:50.214Z,11.8
2022-08-19T17:32:50.132Z,11.0
2022-08-19T17:34:50.690Z,10.8
2022-08-19T17:36:50.070Z,10.8
2022-08-19T17:38:50.189Z,10.2
2022-08-19T17:40:51.707Z,10.2
2022-08-19T17:42:49.771Z,11.6
2022-08-19T17:44:51.230Z,10.8
2022-08-19T17:46:50.431Z,10.8
2022-08-19T17:48:52.831Z,11.5
2022-08-19T17:50:50.371Z,11.5
2022-08-19T17:52:50.379Z,12.0
2022-08-19T17:54:50.535Z,12.0
2022-08-19T17:56:49.782Z,11.7
2022-08-19T17:59:01.717Z,13.6
2022-08-19T18:00:54.470Z,13.6
2022-08-19T18:02:51.852Z,13.6
2022-08-19T18:04:50.404Z,14.7
2022-08-19T18:06:54.898Z,14.7
2022-08-19T18:08:50.186Z,14.0
2022-08-19T18:10:50.233Z,14.0
2022-08-19T18:12:50.209Z,15.0
2022-08-19T18:14:50.100Z,15.2
2022-08-19T18:16:51.302Z,15.2
2022-08-19T18:18:50.109Z,15.0
2022-08-19T18:20:50.360Z,14.9
2022-08-19T18:22:50.393Z,13.3
2022-08-19T18:24:50.475Z,13.3
2022-08-19T18:26:49.905Z,14.4
2022-08-19T18:28:50.315Z,14.3
2022-08-19T18:30:50.309Z,14.4
2022-08-19T18:32:50.373Z,14.4
2022-08-19T18:34:50.319Z,13.1
2022-08-19T18:36:54.222Z,12.1
2022-08-19T18:38:51.280Z,11.1
2022-08-19T18:40:50.318Z,11.1
2022-08-19T18:42:49.824Z,11.2
2022-08-19T18:44:50.337Z,11.2
2022-08-19T18:46:49.659Z,10.9
2022-08-19T18:48:49.724Z,11.5
2022-08-19T18:50:49.844Z,11.5
2022-08-19T18:52:50.082Z,11.0
2022-08-19T18:54:50.115Z,11.5
2022-08-19T18:56:51.069Z,11.2
2022-08-19T18:58:49.974Z,11.3
2022-08-19T19:00:50.130Z,11.6
2022-08-19T19:02:50.440Z,11.6
2022-08-19T19:04:50.151Z,11.3
2022-08-19T19:06:50.520Z,11.8
2022-08-19T19:08:49.718Z,12.3
2022-08-19T19:10:51.171Z,12.3
2022-08-19T19:12:50.039Z,12.9
2022-08-19T19:14:50.661Z,12.8
2022-08-19T19:16:50.228Z,12.6
2022-08-19T19:18:50.495Z,12.6
2022-08-19T19:20:50.400Z,11.8
2022-08-19T19:22:50.366Z,11.8
2022-08-19T19:24:50.261Z,12.5
2022-08-19T19:26:50.453Z,12.4
2022-08-19T19:28:50.433Z,13.4
2022-08-19T19:30:50.413Z,13.4
2022-08-19T19:32:50.413Z,13.7
2022-08-19T19:34:49.730Z,14.8
2022-08-19T19:36:50.100Z,15.7
2022-08-19T19:38:49.960Z,14.5
2022-08-19T19:40:50.091Z,15.9
2022-08-19T19:42:50.056Z,15.9
2022-08-19T19:44:50.000Z,16.4
2022-08-19T19:46:50.027Z,15.6
2022-08-19T19:48:49.816Z,15.2
2022-08-19T19:50:56.391Z,16.0
2022-08-19T19:52:50.383Z,16.0
2022-08-19T19:54:50.171Z,15.9
2022-08-19T19:56:50.266Z,16.2
2022-08-19T19:58:50.161Z,15.3
2022-08-19T20:00:50.214Z,15.3
2022-08-19T20:02:51.199Z,16.7
2022-08-19T20:04:50.318Z,16.3
2022-08-19T20:06:50.612Z,16.2
2022-08-19T20:08:50.651Z,16.2
2022-08-19T20:10:50.601Z,15.8
2022-08-19T20:12:50.486Z,16.4
2022-08-19T20:14:50.385Z,16.2
2022-08-19T20:16:50.649Z,15.8
2022-08-19T20:18:50.531Z,15.3
2022-08-19T20:20:50.662Z,15.3
2022-08-19T20:22:50.625Z,14.4
2022-08-19T20:24:49.751Z,15.3
2022-08-19T20:26:53.743Z,15.1
2022-08-19T20:29:05.322Z,15.1
2022-08-19T20:30:50.513Z,15.5
2022-08-19T20:32:50.506Z,14.8
2022-08-19T20:34:50.032Z,14.7
2022-08-19T20:36:50.201Z,14.0
2022-08-19T20:38:50.099Z,14.0
2022-08-19T20:40:50.136Z,14.8
2022-08-19T20:42:50.273Z,14.4
2022-08-19T20:44:50.356Z,14.8
2022-08-19T20:46:56.883Z,14.4
2022-08-19T20:48:49.687Z,14.4
2022-08-19T20:50:50.813Z,13.9
2022-08-19T20:52:53.809Z,13.7
2022-08-19T20:54:49.806Z,13.6
2022-08-19T20:56:50.190Z,13.8
2022-08-19T20:58:56.670Z,13.8
2022-08-19T21:00:50.313Z,13.9
2022-08-19T21:02:50.581Z,12.9
2022-08-19T21:04:49.890Z,12.9
2022-08-19T21:06:50.293Z,13.9
2022-08-19T21:08:52.374Z,13.9
2022-08-19T21:10:50.566Z,14.3
2022-08-19T21:12:50.491Z,14.8
2022-08-19T21:14:51.843Z,14.5
2022-08-19T21:16:50.359Z,13.6
2022-08-19T21:18:50.580Z,13.6
2022-08-19T21:20:50.290Z,12.3
2022-08-19T21:22:50.296Z,13.3
2022-08-19T21:24:50.248Z,13.1
2022-08-19T21:26:51.642Z,12.4
2022-08-19T21:28:50.486Z,12.4
2022-08-19T21:30:50.443Z,13.1
2022-08-19T21:32:52.850Z,12.4
2022-08-19T21:34:50.215Z,12.8
2022-08-19T21:36:50.583Z,12.0
2022-08-19T21:38:50.471Z,12.0
2022-08-19T21:40:50.427Z,12.7
2022-08-19T21:42:50.361Z,13.6
2022-08-19T21:44:50.332Z,13.8
2022-08-19T21:46:50.907Z,13.8
2022-08-19T21:48:49.778Z,14.0
2022-08-19T21:50:49.798Z,14.3
2022-08-19T21:52:49.840Z,14.3
2022-08-19T21:54:49.991Z,14.8
2022-08-19T21:56:50.411Z,14.8
2022-08-19T21:58:50.345Z,13.6
2022-08-19T22:00:50.643Z,14.5
2022-08-19T22:02:49.967Z,14.4
2022-08-19T22:04:50.516Z,14.4
2022-08-19T22:06:49.812Z,14.5
2022-08-19T22:08:49.728Z,14.6
2022-08-19T22:10:50.479Z,14.7
2022-08-19T22:12:51.915Z,14.7
2022-08-19T22:14:49.783Z,15.1
2022-08-19T22:16:50.020Z,15.1
2022-08-19T22:18:49.846Z,15.6
2022-08-19T22:20:49.906Z,16.3
2022-08-19T22:22:50.369Z,16.6
2022-08-19T22:24:50.309Z,16.9
2022-08-19T22:26:50.659Z,16.9
2022-08-19T22:28:50.587Z,17.4
2022-08-19T22:30:51.428Z,17.1
2022-08-19T22:32:56.432Z,17.2
2022-08-19T22:34:49.925Z,17.2
2022-08-19T22:36:50.724Z,17.4
2022-08-19T22:38:49.733Z,17.4
2022-08-19T22:40:49.768Z,18.1
2022-08-19T22:42:50.671Z,18.7
2022-08-19T22:44:49.659Z,18.7
2022-08-19T22:46:49.713Z,18.2
2022-08-19T22:49:01.116Z,18.0
2022-08-19T22:50:50.623Z,19.2
2022-08-19T22:52:52.423Z,19.3
2022-08-19T22:54:50.353Z,19.3
2022-08-19T22:56:49.744Z,19.5
2022-08-19T22:58:50.447Z,18.7
2022-08-19T23:00:50.049Z,18.7
2022-08-19T23:02:52.555Z,18.7
2022-08-19T23:04:50.121Z,20.0
2022-08-19T23:06:50.340Z,19.6
2022-08-19T23:08:50.377Z,18.7
2022-08-19T23:10:50.394Z,18.0
2022-08-19T23:12:51.782Z,18.0
2022-08-19T23:14:50.089Z,18.9
2022-08-19T23:16:52.348Z,18.3
2022-08-19T23:18:56.256Z,17.6
2022-08-19T23:20:50.357Z,19.1
2022-08-19T23:22:50.434Z,19.1
2022-08-19T23:24:56.315Z,18.3
2022-08-19T23:26:50.524Z,18.2
2022-08-19T23:28:50.489Z,18.5
2022-08-19T23:30:50.528Z,18.5
2022-08-19T23:32:50.639Z,18.5
2022-08-19T23:34:50.022Z,17.8
2022-08-19T23:36:50.400Z,19.2
2022-08-19T23:38:50.514Z,19.2
2022-08-19T23:40:50.600Z,18.7
2022-08-19T23:42:50.589Z,18.7
2022-08-19T23:44:53.058Z,18.0
2022-08-19T23:46:55.742Z,18.6
2022-08-19T23:48:50.407Z,19.3
2022-08-19T23:50:50.319Z,19.4
2022-08-19T23:52:50.336Z,19.4
2022-08-19T23:54:50.314Z,19.4
2022-08-19T23:56:50.614Z,19.3
2022-08-19T23:58:49.751Z,18.7
